Time;durP1;ratioP1;P1;durP2;ratioP2;P2;SDS_P1;SDS_P2;PMS_P1;PMS_P2;Temp;Humidity;BMP_temperature;BMP_pressure;BME280_temperature;BME280_humidity;BME280_pressure;Samples;Min_cycle;Max_cycle;Signal;HPM_P1;HPM_P2
2023/03/27 00:01:24;;;;;;;8.07;4.03;;;;;;;;;;6307261;22;20012;-63
2023/03/27 00:03:52;;;;;;;7.55;3.55;;;;;;;;;;6307218;22;20039;-63
2023/03/27 00:06:20;;;;;;;8.68;3.88;;;;;;;;;;6307338;22;20015;-63
2023/03/27 00:08:52;;;;;;;6.45;3.85;;;;;;;;;;6307126;22;20026;-63
2023/03/27 00:11:21;;;;;;;7.45;3.88;;;;;;;;;;6307138;22;20442;-62
2023/03/27 00:13:54;;;;;;;6.97;3.70;;;;;;;;;;6307202;22;20098;-63
2023/03/27 00:16:23;;;;;;;7.35;3.58;;;;;;;;;;6307383;22;20073;-63
2023/03/27 00:18:52;;;;;;;10.73;4.30;;;;;;;;;;6307434;22;20357;-63
2023/03/27 00:21:21;;;;;;;15.45;4.75;;;;;;;;;;6307067;22;20019;-63
2023/03/27 00:23:48;;;;;;;7.65;4.00;;;;;;;;;;6307023;22;20022;-63
2023/03/27 00:26:16;;;;;;;11.10;4.50;;;;;;;;;;6307061;22;20043;-62
2023/03/27 00:28:43;;;;;;;12.48;5.00;;;;;;;;;;6307066;22;20460;-63
2023/03/27 00:31:12;;;;;;;10.40;3.90;;;;;;;;;;6279581;22;20012;-63
2023/03/27 00:33:40;;;;;;;9.38;4.80;;;;;;;;;;6279528;22;20033;-62
2023/03/27 00:36:08;;;;;;;9.90;4.60;;;;;;;;;;6306893;22;20015;-62
2023/03/27 00:38:38;;;;;;;10.93;4.28;;;;;;;;;;6279628;22;20042;-62
2023/03/27 00:41:06;;;;;;;9.63;4.15;;;;;;;;;;6279851;22;20096;-63
2023/03/27 00:43:34;;;;;;;9.07;4.45;;;;;;;;;;6279283;22;20019;-63
2023/03/27 00:46:21;;;;;;;9.40;4.15;;;;;;;;;;6306754;22;20064;-63
2023/03/27 00:48:50;;;;;;;7.22;3.92;;;;;;;;;;6279479;22;20444;-63
2023/03/27 00:51:19;;;;;;;11.10;4.53;;;;;;;;;;6279350;22;20023;-63
2023/03/27 00:53:47;;;;;;;7.65;4.13;;;;;;;;;;6279395;22;20019;-63
2023/03/27 00:56:15;;;;;;;9.73;4.10;;;;;;;;;;6279616;22;20464;-63
2023/03/27 00:58:48;;;;;;;5.63;3.13;;;;;;;;;;6279379;22;20445;-63
2023/03/27 01:01:17;;;;;;;6.00;3.67;;;;;;;;;;6279486;22;20084;-63
2023/03/27 01:03:46;;;;;;;11.30;4.15;;;;;;;;;;6279329;22;20043;-63
2023/03/27 01:06:15;;;;;;;7.07;3.85;;;;;;;;;;6306803;22;20015;-62
2023/03/27 01:08:46;;;;;;;7.47;4.13;;;;;;;;;;6279182;22;20065;-63
2023/03/27 01:11:16;;;;;;;8.15;4.20;;;;;;;;;;6279355;22;20026;-63
2023/03/27 01:13:52;;;;;;;7.07;4.10;;;;;;;;;;6280557;22;20480;-63
2023/03/27 01:16:27;;;;;;;5.13;3.50;;;;;;;;;;6281547;22;20026;-62
2023/03/27 01:18:59;;;;;;;8.20;4.97;;;;;;;;;;6308737;22;20023;-63
2023/03/27 01:21:46;;;;;;;5.18;3.58;;;;;;;;;;6308990;22;20030;-64
2023/03/27 01:24:27;;;;;;;6.47;3.58;;;;;;;;;;6308807;22;20015;-63
2023/03/27 01:26:56;;;;;;;7.35;3.88;;;;;;;;;;6281138;22;20031;-62
2023/03/27 01:29:25;;;;;;;5.32;3.72;;;;;;;;;;6281426;22;20065;-63
2023/03/27 01:32:11;;;;;;;5.00;3.53;;;;;;;;;;6281204;22;20019;-63
2023/03/27 01:34:54;;;;;;;5.35;3.70;;;;;;;;;;6281446;22;20019;-63
2023/03/27 01:37:32;;;;;;;6.70;3.78;;;;;;;;;;6281361;22;20015;-63
2023/03/27 01:39:59;;;;;;;5.63;3.50;;;;;;;;;;6281049;22;20102;-63
2023/03/27 01:42:38;;;;;;;5.13;3.78;;;;;;;;;;6281154;22;20015;-63
2023/03/27 01:45:19;;;;;;;4.90;3.53;;;;;;;;;;6281350;22;20038;-63
2023/03/27 01:47:55;;;;;;;6.35;3.83;;;;;;;;;;6280937;22;20468;-63
2023/03/27 01:50:27;;;;;;;6.38;3.65;;;;;;;;;;6281171;22;20453;-62
2023/03/27 01:53:15;;;;;;;6.22;3.85;;;;;;;;;;6281001;22;20034;-63
2023/03/27 01:55:45;;;;;;;6.75;3.70;;;;;;;;;;6281021;22;20465;-63
2023/03/27 01:58:16;;;;;;;6.78;3.70;;;;;;;;;;6281151;22;20074;-63
2023/03/27 02:00:46;;;;;;;8.07;3.63;;;;;;;;;;6281222;22;20015;-62
2023/03/27 02:03:35;;;;;;;6.68;3.60;;;;;;;;;;6308381;22;20026;-63
2023/03/27 02:06:06;;;;;;;6.65;3.75;;;;;;;;;;6281106;22;20050;-62
2023/03/27 02:08:38;;;;;;;4.43;3.28;;;;;;;;;;6308338;22;20015;-63
2023/03/27 02:11:14;;;;;;;4.43;3.25;;;;;;;;;;6281012;22;20019;-63
2023/03/27 02:13:44;;;;;;;5.10;3.40;;;;;;;;;;6308313;22;20045;-63
2023/03/27 02:16:14;;;;;;;4.88;3.28;;;;;;;;;;6281180;22;20102;-63
2023/03/27 02:18:46;;;;;;;4.72;3.10;;;;;;;;;;6280840;22;20015;-63
2023/03/27 02:21:15;;;;;;;5.07;3.17;;;;;;;;;;6280927;22;20076;-64
2023/03/27 02:23:43;;;;;;;5.38;4.03;;;;;;;;;;6280835;22;20106;-63
2023/03/27 02:26:12;;;;;;;5.80;3.72;;;;;;;;;;6281095;22;20102;-63
2023/03/27 02:28:46;;;;;;;7.22;4.00;;;;;;;;;;6280902;22;20046;-63
2023/03/27 02:31:26;;;;;;;5.32;4.05;;;;;;;;;;6308305;22;20020;-63
2023/03/27 02:34:01;;;;;;;6.38;4.28;;;;;;;;;;6280597;22;20072;-63
2023/03/27 02:36:44;;;;;;;7.63;4.57;;;;;;;;;;6280728;22;20020;-63
2023/03/27 02:39:16;;;;;;;6.45;4.22;;;;;;;;;;6280733;22;20471;-62
2023/03/27 02:41:43;;;;;;;5.53;4.10;;;;;;;;;;6280559;22;20441;-63
2023/03/27 02:44:56;;;;;;;5.95;3.80;;;;;;;;;;6280635;22;20098;-63
2023/03/27 02:47:30;;;;;;;6.43;4.18;;;;;;;;;;6277161;22;20023;-63
2023/03/27 02:50:02;;;;;;;4.97;3.70;;;;;;;;;;6280690;22;20117;-64
2023/03/27 02:52:47;;;;;;;4.75;3.13;;;;;;;;;;6280703;22;20330;-63
2023/03/27 02:55:17;;;;;;;5.30;2.63;;;;;;;;;;6280610;22;20019;-64
2023/03/27 02:57:48;;;;;;;3.90;2.78;;;;;;;;;;6280493;22;20019;-63
2023/03/27 03:00:36;;;;;;;4.65;3.10;;;;;;;;;;6258775;22;20457;-63
2023/03/27 03:03:33;;;;;;;6.45;3.72;;;;;;;;;;6295039;22;20057;-64
2023/03/27 03:06:09;;;;;;;5.75;3.35;;;;;;;;;;6280540;22;20026;-63
2023/03/27 03:08:38;;;;;;;4.85;3.45;;;;;;;;;;6280474;22;20066;-63
2023/03/27 03:11:10;;;;;;;4.40;3.05;;;;;;;;;;6280326;22;20023;-63
2023/03/27 03:13:39;;;;;;;6.22;3.22;;;;;;;;;;6280215;22;20019;-62
2023/03/27 03:16:08;;;;;;;6.80;3.30;;;;;;;;;;6280442;22;20015;-63
2023/03/27 03:18:36;;;;;;;4.70;3.30;;;;;;;;;;6307562;22;20038;-62
2023/03/27 03:21:04;;;;;;;6.30;3.40;;;;;;;;;;6280105;22;20026;-63
2023/03/27 03:23:32;;;;;;;6.75;3.40;;;;;;;;;;6280320;22;20331;-64
2023/03/27 03:26:02;;;;;;;4.93;3.25;;;;;;;;;;6280360;22;20030;-63
2023/03/27 03:28:42;;;;;;;5.05;3.40;;;;;;;;;;6280022;22;20019;-64
2023/03/27 03:31:41;;;;;;;4.65;3.05;;;;;;;;;;6280236;22;20019;-63
2023/03/27 03:34:15;;;;;;;4.70;3.28;;;;;;;;;;6280083;22;20019;-63
2023/03/27 03:36:43;;;;;;;6.05;3.05;;;;;;;;;;6279835;22;20026;-64
2023/03/27 03:39:11;;;;;;;6.32;3.22;;;;;;;;;;6279937;22;20104;-63
2023/03/27 03:41:40;;;;;;;4.82;3.10;;;;;;;;;;6280030;22;20023;-63
2023/03/27 03:44:09;;;;;;;4.68;2.72;;;;;;;;;;6279863;22;20019;-63
2023/03/27 03:46:37;;;;;;;3.70;2.88;;;;;;;;;;6280013;22;20018;-63
2023/03/27 03:49:05;;;;;;;4.88;2.75;;;;;;;;;;6279893;22;20053;-63
2023/03/27 03:51:34;;;;;;;5.43;3.35;;;;;;;;;;6279784;22;20025;-63
2023/03/27 03:54:04;;;;;;;5.00;3.08;;;;;;;;;;6279817;22;20110;-64
2023/03/27 03:56:33;;;;;;;3.85;3.00;;;;;;;;;;6279954;22;20015;-64
2023/03/27 03:59:01;;;;;;;4.13;2.90;;;;;;;;;;6280025;22;20027;-64
2023/03/27 04:01:30;;;;;;;5.28;2.53;;;;;;;;;;6280731;22;20096;-64
2023/03/27 04:04:01;;;;;;;4.07;2.70;;;;;;;;;;6279832;22;20019;-65
2023/03/27 04:06:44;;;;;;;3.65;2.70;;;;;;;;;;6279959;22;20479;-65
2023/03/27 04:09:12;;;;;;;4.28;2.75;;;;;;;;;;6279970;22;20449;-64
2023/03/27 04:12:00;;;;;;;3.97;2.67;;;;;;;;;;6306176;22;20033;-64
2023/03/27 04:14:46;;;;;;;4.75;2.78;;;;;;;;;;6307164;22;20123;-65
2023/03/27 04:17:34;;;;;;;4.10;2.40;;;;;;;;;;6306079;22;20019;-65
2023/03/27 04:20:04;;;;;;;3.00;2.45;;;;;;;;;;6279753;22;20015;-65
2023/03/27 04:22:36;;;;;;;2.55;2.05;;;;;;;;;;6279711;22;20023;-64
2023/03/27 04:25:07;;;;;;;3.65;2.47;;;;;;;;;;6278654;22;20015;-65
2023/03/27 04:27:35;;;;;;;4.47;2.75;;;;;;;;;;6277809;22;20023;-65
2023/03/27 04:30:21;;;;;;;3.72;2.25;;;;;;;;;;6279524;22;20061;-65
2023/03/27 04:33:24;;;;;;;4.43;2.30;;;;;;;;;;6212347;23;20357;-64
2023/03/27 04:35:59;;;;;;;5.00;2.80;;;;;;;;;;6291743;22;20457;-64
2023/03/27 04:39:01;;;;;;;4.18;2.40;;;;;;;;;;6279570;22;20015;-67
2023/03/27 04:41:31;;;;;;;3.38;2.17;;;;;;;;;;6279163;22;20019;-65
2023/03/27 04:43:59;;;;;;;3.58;2.10;;;;;;;;;;6279449;22;20015;-65
2023/03/27 04:46:28;;;;;;;5.60;2.40;;;;;;;;;;6279574;22;20015;-65
2023/03/27 04:49:01;;;;;;;4.13;2.22;;;;;;;;;;6278930;22;20019;-64
2023/03/27 04:51:55;;;;;;;4.35;2.40;;;;;;;;;;6301935;22;20038;-63
2023/03/27 04:54:30;;;;;;;3.63;2.10;;;;;;;;;;6278715;22;20046;-64
2023/03/27 04:57:00;;;;;;;4.70;2.40;;;;;;;;;;6278047;22;20015;-64
2023/03/27 04:59:32;;;;;;;3.72;2.03;;;;;;;;;;6278712;22;20026;-63
2023/03/27 05:02:30;;;;;;;3.92;2.00;;;;;;;;;;6223071;22;20034;-65
2023/03/27 05:05:13;;;;;;;4.22;2.70;;;;;;;;;;6279294;22;20015;-64
2023/03/27 05:07:44;;;;;;;5.40;2.55;;;;;;;;;;6279692;22;20318;-64
2023/03/27 05:10:16;;;;;;;3.60;2.60;;;;;;;;;;6279598;22;20088;-64
2023/03/27 05:12:50;;;;;;;4.60;2.50;;;;;;;;;;6279496;22;20019;-64
2023/03/27 05:15:18;;;;;;;2.63;1.95;;;;;;;;;;6279449;22;20019;-65
2023/03/27 05:17:53;;;;;;;4.85;2.60;;;;;;;;;;6279622;22;20400;-64
2023/03/27 05:20:24;;;;;;;4.57;2.50;;;;;;;;;;6279473;22;20015;-64
2023/03/27 05:22:55;;;;;;;3.65;2.40;;;;;;;;;;6279655;22;20020;-65
2023/03/27 05:25:28;;;;;;;7.80;2.60;;;;;;;;;;6279661;22;20396;-65
2023/03/27 05:27:56;;;;;;;4.70;2.65;;;;;;;;;;6279498;22;20051;-65
2023/03/27 05:30:28;;;;;;;4.47;2.95;;;;;;;;;;6279550;22;20019;-65
2023/03/27 05:33:12;;;;;;;3.60;2.38;;;;;;;;;;6279392;22;20505;-65
2023/03/27 05:35:47;;;;;;;4.22;2.58;;;;;;;;;;6279302;22;20349;-64
2023/03/27 05:38:15;;;;;;;4.43;2.47;;;;;;;;;;6279348;22;20345;-65
2023/03/27 05:41:11;;;;;;;3.90;2.00;;;;;;;;;;6279314;22;20073;-65
2023/03/27 05:43:44;;;;;;;6.80;2.80;;;;;;;;;;6279317;22;20453;-64
2023/03/27 05:46:16;;;;;;;5.05;2.80;;;;;;;;;;6279385;22;20026;-65
2023/03/27 05:49:04;;;;;;;6.40;3.05;;;;;;;;;;6279434;22;20019;-65
2023/03/27 05:51:32;;;;;;;5.70;2.42;;;;;;;;;;6279347;22;20046;-64
2023/03/27 05:53:59;;;;;;;3.17;2.20;;;;;;;;;;6279205;22;20103;-64
2023/03/27 05:56:38;;;;;;;4.10;2.25;;;;;;;;;;6279393;22;20026;-64
2023/03/27 05:59:05;;;;;;;3.92;2.20;;;;;;;;;;6279767;22;20019;-64
2023/03/27 06:01:35;;;;;;;5.25;2.50;;;;;;;;;;6281192;22;20065;-65
2023/03/27 06:04:04;;;;;;;3.83;1.95;;;;;;;;;;6308840;22;20023;-65
2023/03/27 06:06:49;;;;;;;3.75;2.47;;;;;;;;;;6281179;22;20086;-64
2023/03/27 06:09:17;;;;;;;2.40;2.10;;;;;;;;;;6281191;22;20102;-65
2023/03/27 06:12:01;;;;;;;2.58;2.03;;;;;;;;;;6281089;22;20341;-65
2023/03/27 06:14:33;;;;;;;4.10;2.78;;;;;;;;;;6281004;22;20484;-65
2023/03/27 06:17:21;;;;;;;3.67;2.53;;;;;;;;;;6307923;22;20102;-64
2023/03/27 06:19:55;;;;;;;6.53;2.65;;;;;;;;;;6280979;22;20019;-64
2023/03/27 06:22:23;;;;;;;4.13;2.55;;;;;;;;;;6280741;22;20039;-65
2023/03/27 06:24:52;;;;;;;5.15;2.80;;;;;;;;;;6281013;22;20069;-65
2023/03/27 06:27:21;;;;;;;3.83;2.60;;;;;;;;;;6280982;22;20346;-65
2023/03/27 06:29:48;;;;;;;4.05;2.80;;;;;;;;;;6280904;22;20041;-65
2023/03/27 06:32:16;;;;;;;4.47;2.45;;;;;;;;;;6281007;22;20042;-65
2023/03/27 06:34:49;;;;;;;4.72;3.08;;;;;;;;;;6280961;22;20019;-64
2023/03/27 06:37:35;;;;;;;3.28;2.15;;;;;;;;;;6308229;22;20031;-65
2023/03/27 06:40:08;;;;;;;5.65;3.35;;;;;;;;;;6280806;22;20023;-64
2023/03/27 06:42:37;;;;;;;4.28;2.60;;;;;;;;;;6280661;22;20105;-65
2023/03/27 06:45:24;;;;;;;4.43;2.38;;;;;;;;;;6308334;22;20057;-64
2023/03/27 06:48:23;;;;;;;3.50;2.38;;;;;;;;;;6308065;22;20396;-64
2023/03/27 06:50:54;;;;;;;4.93;2.70;;;;;;;;;;6280767;22;20046;-65
2023/03/27 06:53:25;;;;;;;3.95;2.42;;;;;;;;;;6280831;22;20023;-65
2023/03/27 06:55:56;;;;;;;5.63;2.85;;;;;;;;;;6280743;22;20050;-64
2023/03/27 06:58:26;;;;;;;4.25;2.70;;;;;;;;;;6280669;22;20400;-65
2023/03/27 07:00:54;;;;;;;3.25;2.33;;;;;;;;;;6280756;22;20069;-64
2023/03/27 07:03:22;;;;;;;4.43;2.50;;;;;;;;;;6308377;22;20080;-65
2023/03/27 07:05:59;;;;;;;4.50;2.40;;;;;;;;;;6308742;22;20076;-64
2023/03/27 07:08:33;;;;;;;4.75;2.42;;;;;;;;;;6280524;22;20016;-64
2023/03/27 07:11:02;;;;;;;3.10;2.33;;;;;;;;;;6280058;22;20019;-65
2023/03/27 07:13:34;;;;;;;3.15;2.20;;;;;;;;;;6280535;22;20019;-64
2023/03/27 07:16:05;;;;;;;3.42;2.17;;;;;;;;;;6280352;22;20103;-63
2023/03/27 07:18:33;;;;;;;4.97;2.55;;;;;;;;;;6280446;22;20025;-64
2023/03/27 07:21:00;;;;;;;5.40;2.70;;;;;;;;;;6280488;22;20016;-64
2023/03/27 07:23:28;;;;;;;3.28;2.20;;;;;;;;;;6280352;22;20019;-64
2023/03/27 07:26:02;;;;;;;7.05;3.00;;;;;;;;;;6280178;22;20046;-65
2023/03/27 07:28:50;;;;;;;5.45;3.17;;;;;;;;;;6307779;22;20398;-64
2023/03/27 07:31:19;;;;;;;4.82;2.80;;;;;;;;;;6280253;22;20015;-64
2023/03/27 07:34:07;;;;;;;5.28;3.83;;;;;;;;;;6307500;22;20102;-64
2023/03/27 07:37:07;;;;;;;3.90;3.22;;;;;;;;;;6239240;22;20030;-64
2023/03/27 07:39:38;;;;;;;4.18;3.15;;;;;;;;;;6280165;22;20023;-64
2023/03/27 07:42:06;;;;;;;8.40;3.33;;;;;;;;;;6279830;22;20497;-64
2023/03/27 07:44:53;;;;;;;8.40;5.15;;;;;;;;;;6280244;22;20476;-64
2023/03/27 07:47:21;;;;;;;4.68;3.33;;;;;;;;;;6280123;22;20019;-64
2023/03/27 07:49:48;;;;;;;5.35;3.63;;;;;;;;;;6280214;22;20065;-64
2023/03/27 07:52:21;;;;;;;5.85;3.40;;;;;;;;;;6280208;22;20030;-64
2023/03/27 07:54:57;;;;;;;4.70;3.15;;;;;;;;;;6280187;22;20381;-64
2023/03/27 07:57:33;;;;;;;7.03;4.00;;;;;;;;;;6280075;22;20453;-64
2023/03/27 08:00:24;;;;;;;7.03;4.15;;;;;;;;;;6280185;22;20019;-64
2023/03/27 08:03:10;;;;;;;6.50;4.13;;;;;;;;;;6280081;22;20022;-64
2023/03/27 08:05:43;;;;;;;5.28;4.05;;;;;;;;;;6280081;22;20386;-64
2023/03/27 08:08:13;;;;;;;5.05;3.15;;;;;;;;;;6279801;22;20457;-65
2023/03/27 08:10:46;;;;;;;5.68;3.70;;;;;;;;;;6279860;22;20049;-63
2023/03/27 08:13:17;;;;;;;7.50;3.88;;;;;;;;;;6279771;22;20026;-64
2023/03/27 08:15:45;;;;;;;6.95;4.20;;;;;;;;;;6279910;22;20023;-63
2023/03/27 08:18:21;;;;;;;6.82;4.30;;;;;;;;;;6279921;22;20464;-64
2023/03/27 08:20:54;;;;;;;7.07;4.47;;;;;;;;;;6279666;22;20049;-64
2023/03/27 08:23:26;;;;;;;5.75;4.30;;;;;;;;;;6279391;22;20023;-64
2023/03/27 08:26:16;;;;;;;12.77;4.97;;;;;;;;;;6306242;22;20054;-64
2023/03/27 08:28:55;;;;;;;8.13;5.18;;;;;;;;;;6279886;22;20461;-65
2023/03/27 08:31:29;;;;;;;9.52;5.00;;;;;;;;;;6279998;22;20206;-63
2023/03/27 08:34:01;;;;;;;6.80;4.50;;;;;;;;;;6279784;22;20049;-65
2023/03/27 08:36:38;;;;;;;8.23;4.57;;;;;;;;;;6279769;22;20023;-64
2023/03/27 08:39:07;;;;;;;8.75;4.30;;;;;;;;;;6279795;22;20022;-63
2023/03/27 08:41:53;;;;;;;8.02;3.75;;;;;;;;;;6279695;22;20072;-63
2023/03/27 08:44:30;;;;;;;8.07;3.95;;;;;;;;;;6279748;22;20015;-65
2023/03/27 08:47:02;;;;;;;5.97;3.63;;;;;;;;;;6279928;22;20392;-64
2023/03/27 08:49:34;;;;;;;6.00;3.50;;;;;;;;;;6279743;22;20353;-65
2023/03/27 08:52:31;;;;;;;8.65;4.40;;;;;;;;;;6300728;22;20349;-64
2023/03/27 08:55:05;;;;;;;7.63;3.72;;;;;;;;;;6279452;22;20353;-64
2023/03/27 08:57:37;;;;;;;7.07;3.97;;;;;;;;;;6279599;22;20015;-64
2023/03/27 09:00:20;;;;;;;5.97;3.53;;;;;;;;;;6279431;22;20030;-64
2023/03/27 09:02:53;;;;;;;6.68;3.85;;;;;;;;;;6254766;22;20569;-65
2023/03/27 09:05:23;;;;;;;6.00;4.15;;;;;;;;;;6279481;22;20015;-64
2023/03/27 09:07:58;;;;;;;5.40;3.40;;;;;;;;;;6279481;22;20023;-64
2023/03/27 09:10:30;;;;;;;4.00;3.35;;;;;;;;;;6279395;22;20015;-65
2023/03/27 09:13:03;;;;;;;5.95;3.30;;;;;;;;;;6279072;22;20395;-64
2023/03/27 09:15:38;;;;;;;4.65;3.80;;;;;;;;;;6255112;22;20077;-64
2023/03/27 09:18:12;;;;;;;8.48;3.60;;;;;;;;;;6279447;22;20015;-64
2023/03/27 09:20:45;;;;;;;6.68;3.95;;;;;;;;;;6279418;22;20030;-64
2023/03/27 09:23:13;;;;;;;5.60;4.00;;;;;;;;;;6279377;22;20022;-65
2023/03/27 09:26:06;;;;;;;7.63;4.68;;;;;;;;;;6306964;22;20116;-64
2023/03/27 09:29:00;;;;;;;7.00;4.07;;;;;;;;;;6306958;22;20042;-65
2023/03/27 09:31:33;;;;;;;5.47;3.30;;;;;;;;;;6279416;22;20073;-64
2023/03/27 09:34:07;;;;;;;3.92;3.13;;;;;;;;;;6279680;22;20023;-63
2023/03/27 09:36:35;;;;;;;3.40;3.05;;;;;;;;;;6281489;22;20041;-64
2023/03/27 09:39:06;;;;;;;6.97;3.08;;;;;;;;;;6281569;22;20015;-65
2023/03/27 09:41:41;;;;;;;5.72;3.38;;;;;;;;;;6281240;22;20106;-64
2023/03/27 09:44:11;;;;;;;5.78;3.88;;;;;;;;;;6281388;22;20043;-64
2023/03/27 09:46:43;;;;;;;4.32;3.00;;;;;;;;;;6281208;22;20030;-63
2023/03/27 09:49:13;;;;;;;7.85;3.25;;;;;;;;;;6281410;22;20467;-64
2023/03/27 09:51:48;;;;;;;5.57;3.03;;;;;;;;;;6281699;22;20341;-63
2023/03/27 09:54:52;;;;;;;3.72;2.70;;;;;;;;;;6241082;22;20031;-64
2023/03/27 09:57:46;;;;;;;4.70;2.80;;;;;;;;;;6303789;22;20543;-64
2023/03/27 10:00:26;;;;;;;4.75;2.50;;;;;;;;;;6281363;22;20023;-64
2023/03/27 10:03:06;;;;;;;3.05;2.55;;;;;;;;;;6281353;22;20039;-63
2023/03/27 10:05:38;;;;;;;6.03;2.80;;;;;;;;;;6281136;22;20015;-64
2023/03/27 10:08:27;;;;;;;3.42;2.67;;;;;;;;;;6281248;22;20046;-64
2023/03/27 10:11:07;;;;;;;5.20;2.63;;;;;;;;;;6281134;22;20023;-63
2023/03/27 10:13:43;;;;;;;4.50;2.53;;;;;;;;;;6308587;22;20033;-64
2023/03/27 10:16:10;;;;;;;4.22;2.80;;;;;;;;;;6308538;22;20073;-64
2023/03/27 10:18:52;;;;;;;6.30;3.20;;;;;;;;;;6280992;22;20354;-64
2023/03/27 10:21:20;;;;;;;4.70;2.58;;;;;;;;;;6281209;22;20015;-64
2023/03/27 10:23:49;;;;;;;3.97;2.95;;;;;;;;;;6281134;22;20023;-65
2023/03/27 10:26:27;;;;;;;3.65;2.60;;;;;;;;;;6281123;22;20331;-65
2023/03/27 10:29:00;;;;;;;4.22;2.65;;;;;;;;;;6280961;22;20027;-65
2023/03/27 10:31:37;;;;;;;4.50;2.60;;;;;;;;;;6280736;22;20030;-64
2023/03/27 10:34:31;;;;;;;4.45;2.80;;;;;;;;;;6280464;22;20388;-65
2023/03/27 10:37:28;;;;;;;4.28;2.78;;;;;;;;;;6308365;22;20073;-65
2023/03/27 10:40:20;;;;;;;3.97;2.90;;;;;;;;;;6280912;22;20023;-65
2023/03/27 10:42:54;;;;;;;3.15;2.60;;;;;;;;;;6256356;22;20031;-65
2023/03/27 10:45:23;;;;;;;4.10;2.92;;;;;;;;;;6280335;22;20436;-63
2023/03/27 10:47:57;;;;;;;3.72;2.83;;;;;;;;;;6280808;22;20102;-65
2023/03/27 10:50:37;;;;;;;9.88;2.80;;;;;;;;;;6280875;22;20023;-64
2023/03/27 10:53:04;;;;;;;6.18;2.65;;;;;;;;;;6280708;22;20349;-65
2023/03/27 10:55:55;;;;;;;3.88;2.40;;;;;;;;;;6280542;22;20416;-65
2023/03/27 10:58:23;;;;;;;3.08;2.30;;;;;;;;;;6280571;22;20019;-64
2023/03/27 11:00:56;;;;;;;7.07;2.55;;;;;;;;;;6280815;22;20026;-64
2023/03/27 11:03:54;;;;;;;5.10;2.53;;;;;;;;;;6280722;22;20026;-65
2023/03/27 11:06:26;;;;;;;3.20;2.30;;;;;;;;;;6226175;22;20682;-65
2023/03/27 11:09:04;;;;;;;4.53;2.13;;;;;;;;;;6280549;22;20045;-65
2023/03/27 11:11:38;;;;;;;3.42;2.20;;;;;;;;;;6280658;22;20023;-63
2023/03/27 11:14:26;;;;;;;5.03;2.42;;;;;;;;;;6280311;22;20042;-64
2023/03/27 11:16:56;;;;;;;4.28;2.40;;;;;;;;;;6280456;22;20019;-65
2023/03/27 11:19:53;;;;;;;4.35;2.35;;;;;;;;;;6280348;22;20020;-63
2023/03/27 11:22:29;;;;;;;3.75;2.03;;;;;;;;;;6308191;22;20027;-64
2023/03/27 11:25:04;;;;;;;6.33;2.57;;;;;;;;;;6280338;22;20025;-64
2023/03/27 11:27:36;;;;;;;6.40;2.30;;;;;;;;;;6280205;22;20031;-64
2023/03/27 11:30:19;;;;;;;9.73;2.95;;;;;;;;;;6280484;22;20015;-64
2023/03/27 11:33:09;;;;;;;3.78;2.65;;;;;;;;;;6280445;22;20027;-64
2023/03/27 11:35:51;;;;;;;5.95;2.45;;;;;;;;;;6280084;22;20334;-64
2023/03/27 11:39:00;;;;;;;3.90;2.80;;;;;;;;;;6280396;22;20016;-64
2023/03/27 11:41:28;;;;;;;5.45;2.80;;;;;;;;;;6307360;22;20051;-63
2023/03/27 11:44:00;;;;;;;4.38;2.55;;;;;;;;;;6280319;22;20023;-65
2023/03/27 11:47:18;;;;;;;7.70;2.58;;;;;;;;;;6307494;22;20349;-64
2023/03/27 11:50:06;;;;;;;7.78;2.45;;;;;;;;;;6270921;22;20023;-64
2023/03/27 11:52:43;;;;;;;6.97;2.90;;;;;;;;;;6280516;22;20459;-64
2023/03/27 11:55:24;;;;;;;18.52;3.92;;;;;;;;;;6280027;22;20500;-64
2023/03/27 11:57:59;;;;;;;35.25;3.20;;;;;;;;;;6279934;22;20392;-65
2023/03/27 12:00:52;;;;;;;6.63;2.08;;;;;;;;;;6280191;22;20015;-63
2023/03/27 12:03:24;;;;;;;5.13;2.13;;;;;;;;;;6280071;22;20030;-63
2023/03/27 12:06:01;;;;;;;3.63;2.20;;;;;;;;;;6307764;22;20388;-63
2023/03/27 12:08:40;;;;;;;3.53;2.00;;;;;;;;;;6280010;22;20015;-64
2023/03/27 12:11:11;;;;;;;3.42;2.22;;;;;;;;;;6307272;22;20453;-64
2023/03/27 12:13:52;;;;;;;5.97;2.25;;;;;;;;;;6279736;22;20019;-64
2023/03/27 12:16:51;;;;;;;8.63;3.33;;;;;;;;;;6279793;22;20019;-63
2023/03/27 12:19:40;;;;;;;8.38;2.80;;;;;;;;;;6279893;22;20085;-64
2023/03/27 12:22:44;;;;;;;4.75;2.72;;;;;;;;;;6280096;22;20019;-64
2023/03/27 12:25:36;;;;;;;7.22;2.72;;;;;;;;;;6279900;22;20344;-64
2023/03/27 12:28:22;;;;;;;7.95;3.50;;;;;;;;;;6307042;22;20066;-65
2023/03/27 12:31:10;;;;;;;8.80;3.83;;;;;;;;;;6279679;22;20094;-64
2023/03/27 12:33:41;;;;;;;10.77;3.78;;;;;;;;;;6279713;22;20023;-64
2023/03/27 12:36:11;;;;;;;7.60;3.60;;;;;;;;;;6307163;22;20019;-64
2023/03/27 12:38:40;;;;;;;5.53;3.80;;;;;;;;;;6279624;22;20046;-63
2023/03/27 12:41:11;;;;;;;5.93;4.45;;;;;;;;;;6279817;22;20023;-63
2023/03/27 12:43:59;;;;;;;7.47;4.47;;;;;;;;;;6307122;22;20114;-63
2023/03/27 12:46:35;;;;;;;6.32;4.35;;;;;;;;;;6255710;22;20069;-63
2023/03/27 12:49:10;;;;;;;7.82;4.65;;;;;;;;;;6280298;22;20015;-63
2023/03/27 12:51:50;;;;;;;6.45;4.65;;;;;;;;;;6279662;22;20098;-63
2023/03/27 12:54:39;;;;;;;10.45;5.93;;;;;;;;;;6305018;22;20072;-63
2023/03/27 12:57:43;;;;;;;9.73;5.95;;;;;;;;;;6286318;22;20019;-65
2023/03/27 13:00:24;;;;;;;9.23;5.82;;;;;;;;;;6279582;22;20023;-63
2023/03/27 13:02:52;;;;;;;13.13;7.03;;;;;;;;;;6279481;22;20099;-65
2023/03/27 13:05:25;;;;;;;13.88;8.05;;;;;;;;;;6279447;22;20023;-64
2023/03/27 13:08:13;;;;;;;11.20;7.43;;;;;;;;;;6279267;22;20380;-63
2023/03/27 13:11:16;;;;;;;14.60;7.72;;;;;;;;;;6305535;22;20073;-64
2023/03/27 13:13:59;;;;;;;11.00;7.20;;;;;;;;;;6279654;22;20043;-63
2023/03/27 13:16:26;;;;;;;13.73;7.13;;;;;;;;;;6279376;22;20027;-64
2023/03/27 13:19:01;;;;;;;10.95;7.03;;;;;;;;;;6279455;22;20019;-64
2023/03/27 13:21:47;;;;;;;12.18;6.75;;;;;;;;;;6279421;22;20074;-64
2023/03/27 13:24:24;;;;;;;9.25;5.90;;;;;;;;;;6279493;22;20461;-63
2023/03/27 13:26:55;;;;;;;10.95;6.72;;;;;;;;;;6279474;22;20015;-64
2023/03/27 13:29:25;;;;;;;10.05;6.95;;;;;;;;;;6279546;22;20023;-64
2023/03/27 13:32:05;;;;;;;8.98;6.07;;;;;;;;;;6306297;22;20039;-65
2023/03/27 13:35:08;;;;;;;9.85;6.45;;;;;;;;;;6278691;22;20371;-66
2023/03/27 13:37:40;;;;;;;11.35;5.95;;;;;;;;;;6279279;22;20023;-65
2023/03/27 13:40:22;;;;;;;10.70;6.88;;;;;;;;;;6278641;22;20030;-65
2023/03/27 13:43:01;;;;;;;9.63;6.05;;;;;;;;;;6278650;22;20043;-64
2023/03/27 13:45:37;;;;;;;9.43;6.28;;;;;;;;;;6278776;22;20023;-60
2023/03/27 13:48:49;;;;;;;8.07;5.88;;;;;;;;;;6254610;22;20069;-59
2023/03/27 13:51:39;;;;;;;8.93;5.72;;;;;;;;;;6278989;22;20396;-58
2023/03/27 13:54:27;;;;;;;7.50;5.35;;;;;;;;;;6279229;22;20012;-60
2023/03/27 13:56:54;;;;;;;10.13;6.15;;;;;;;;;;6279101;22;20416;-59
2023/03/27 13:59:57;;;;;;;8.65;6.18;;;;;;;;;;6289741;22;20033;-59
2023/03/27 14:02:45;;;;;;;10.40;5.55;;;;;;;;;;6307101;22;20047;-59
2023/03/27 14:05:17;;;;;;;8.70;5.20;;;;;;;;;;6279213;22;20023;-59
2023/03/27 14:07:44;;;;;;;7.32;5.75;;;;;;;;;;6279225;22;20029;-59
2023/03/27 14:10:34;;;;;;;8.23;5.70;;;;;;;;;;6279242;22;20106;-59
2023/03/27 14:13:06;;;;;;;9.80;5.70;;;;;;;;;;6279134;22;20015;-58
2023/03/27 14:16:03;;;;;;;10.88;5.72;;;;;;;;;;6279002;22;20039;-58
2023/03/27 14:18:59;;;;;;;8.88;6.10;;;;;;;;;;6279215;22;20019;-58
2023/03/27 14:21:28;;;;;;;12.68;6.80;;;;;;;;;;6280376;22;20402;-58
2023/03/27 14:24:26;;;;;;;8.32;6.63;;;;;;;;;;6278607;22;20022;-59
2023/03/27 14:27:05;;;;;;;12.93;6.55;;;;;;;;;;6280472;22;20076;-62
2023/03/27 14:29:36;;;;;;;10.13;6.82;;;;;;;;;;6307957;22;20070;-65
2023/03/27 14:32:05;;;;;;;7.32;5.90;;;;;;;;;;6280636;22;20393;-60
2023/03/27 14:34:35;;;;;;;9.57;6.15;;;;;;;;;;6307677;22;20021;-60
2023/03/27 14:37:40;;;;;;;9.13;6.93;;;;;;;;;;6280549;22;20016;-59
2023/03/27 14:40:26;;;;;;;9.98;6.45;;;;;;;;;;6280280;22;20022;-58
2023/03/27 14:42:57;;;;;;;9.68;6.25;;;;;;;;;;6280119;22;20086;-59
2023/03/27 14:45:28;;;;;;;8.65;6.03;;;;;;;;;;6280399;22;20026;-59
2023/03/27 14:48:16;;;;;;;7.80;5.80;;;;;;;;;;6280985;22;20016;-57
2023/03/27 14:50:47;;;;;;;8.40;5.57;;;;;;;;;;6280352;22;20445;-61
2023/03/27 14:53:20;;;;;;;7.38;5.50;;;;;;;;;;6279604;22;20019;-60
2023/03/27 14:56:10;;;;;;;9.88;5.40;;;;;;;;;;6279971;22;20023;-60
2023/03/27 14:59:01;;;;;;;8.75;5.93;;;;;;;;;;6280437;22;20098;-60
2023/03/27 15:01:46;;;;;;;9.82;6.60;;;;;;;;;;6280255;22;20077;-60
2023/03/27 15:04:14;;;;;;;8.93;6.38;;;;;;;;;;6280194;22;20046;-59
2023/03/27 15:06:44;;;;;;;9.02;6.32;;;;;;;;;;6280309;22;20050;-59
2023/03/27 15:09:23;;;;;;;10.27;6.38;;;;;;;;;;6280176;22;20015;-61
2023/03/27 15:11:57;;;;;;;9.55;6.55;;;;;;;;;;6307730;22;20019;-59
2023/03/27 15:14:31;;;;;;;9.15;5.90;;;;;;;;;;6280185;22;20019;-59
2023/03/27 15:17:01;;;;;;;9.05;6.68;;;;;;;;;;6279852;22;20072;-58
2023/03/27 15:19:42;;;;;;;8.25;6.47;;;;;;;;;;6255117;22;20027;-59
2023/03/27 15:22:23;;;;;;;9.18;6.13;;;;;;;;;;6279951;22;20027;-58
2023/03/27 15:24:55;;;;;;;10.75;6.97;;;;;;;;;;6278760;22;20042;-58
2023/03/27 15:27:27;;;;;;;8.82;6.25;;;;;;;;;;6306580;22;20015;-59
2023/03/27 15:29:57;;;;;;;10.23;7.20;;;;;;;;;;6307436;22;20372;-59
2023/03/27 15:32:28;;;;;;;9.98;7.15;;;;;;;;;;6305948;22;20064;-60
2023/03/27 15:34:58;;;;;;;10.13;7.10;;;;;;;;;;6306251;22;20016;-59
2023/03/27 15:37:27;;;;;;;10.13;7.72;;;;;;;;;;6307558;22;20019;-59